Pagina principale
METAR-TAF:

METAR-TAF

Aeroporti :

Treviso, Italia

Aeroporto di Treviso-Sant'Angelo

latitudine: 45-39N, longitudine: 012-11E, altezza: 18 m

Osservazione

Il bollettino è stato emesso 19 minuti fa, alle 13:20 UTC
Vento 5 kt da ovest/nord-ovest, variando fra ovest e nord/nord-ovest
Temperature 14°C
Umidità 82%
Pressione 1010 hPa
Visibilità 10 km o più
Nuvoloso ad un'altezza di 5000 ft
pioggia debole

METAR: LIPH 191320Z 29005KT 260V330 9999 -RA BKN050 14/11 Q1010

Ora: 15:39 (13:39 UTC)

Previsione

Il bollettino è stato emesso 2 ore e 39 minuti fa, alle 11:00 UTC
Previsione valida dal 19 alle 12 UTC al 20 alle 12 UTC
Vento 5 kt da direzioni variabili
Visibilità: 8000 m
Nubi sparse ad un'altezza di 3000 ft
Temporaneamente
dal 19 alle 12 UTC al 19 alle 16 UTC
pioggia

TAF: LIPH 191100Z 1912/2012 VRB05KT 8000 SCT030 TEMPO 1912/1916 RA

Osservazioni e previsioni meteorologiche di più di 4000 aeroporti (messaggi METAR e TAF).

Le stazioni disponibili sono rappresentate dai dischi gialli e rossi sulla carta.

Puntare il mouse per vedere il nome della stazione.

Clicca sopra per visualizzare le osservazioni e previsioni meteorologiche.

Per cambiare la mappa : fare clic sui pulsanti verdi con una croce nera per ingrandire, il pulsante verde con un trattino per diminuire, o sulla freccia verde per le mappe adiacenti.


METAR-TAF: